Time;durP1;ratioP1;P1;durP2;ratioP2;P2;SDS_P1;SDS_P2;PMS_P1;PMS_P2;Temp;Humidity;BMP_temperature;BMP_pressure;BME280_temperature;BME280_humidity;BME280_pressure;Samples;Min_cycle;Max_cycle;Signal;HPM_P1;HPM_P2
2021/01/12 00:01:11;;;;;;;3.00;2.80;;;;;;;;;;5065435;28;20202;-49
2021/01/12 00:03:37;;;;;;;3.55;3.22;;;;;;;;;;5071074;28;20171;-48
2021/01/12 00:06:03;;;;;;;3.17;2.88;;;;;;;;;;5074161;28;20180;-49
2021/01/12 00:08:29;;;;;;;3.25;2.85;;;;;;;;;;5075528;28;20167;-49
2021/01/12 00:10:55;;;;;;;8.82;3.22;;;;;;;;;;5073428;28;20205;-49
2021/01/12 00:13:22;;;;;;;4.47;3.42;;;;;;;;;;5072548;28;20219;-49
2021/01/12 00:15:48;;;;;;;3.65;3.35;;;;;;;;;;5063899;28;20541;-49
2021/01/12 00:18:14;;;;;;;4.82;3.75;;;;;;;;;;5073587;28;20193;-49
2021/01/12 00:20:40;;;;;;;3.58;3.28;;;;;;;;;;5063434;28;20604;-47
2021/01/12 00:23:06;;;;;;;3.78;3.40;;;;;;;;;;5074244;28;20174;-49
2021/01/12 00:25:32;;;;;;;3.42;3.13;;;;;;;;;;5073790;28;20718;-49
2021/01/12 00:27:58;;;;;;;4.05;3.40;;;;;;;;;;5067258;28;20170;-49
2021/01/12 00:30:24;;;;;;;4.80;3.33;;;;;;;;;;5058326;28;20190;-49
2021/01/12 00:32:50;;;;;;;3.45;3.15;;;;;;;;;;5073788;28;20212;-49
2021/01/12 00:35:16;;;;;;;3.38;3.08;;;;;;;;;;5071341;28;20178;-49
2021/01/12 00:37:42;;;;;;;3.15;2.72;;;;;;;;;;5064209;28;20182;-49
2021/01/12 00:40:08;;;;;;;3.75;3.40;;;;;;;;;;5072378;28;20278;-49
2021/01/12 00:42:34;;;;;;;3.42;3.13;;;;;;;;;;5060060;28;20232;-47
2021/01/12 00:45:00;;;;;;;3.47;3.17;;;;;;;;;;5065311;28;20533;-49
2021/01/12 00:47:28;;;;;;;3.22;2.92;;;;;;;;;;5074190;28;20170;-49
2021/01/12 00:49:54;;;;;;;3.05;2.85;;;;;;;;;;5073841;28;20176;-49
2021/01/12 00:52:20;;;;;;;3.30;3.00;;;;;;;;;;5076509;28;20210;-49
2021/01/12 00:54:46;;;;;;;3.58;3.28;;;;;;;;;;5076824;28;20186;-49
2021/01/12 00:57:12;;;;;;;3.50;3.20;;;;;;;;;;5077467;28;20166;-48
2021/01/12 00:59:38;;;;;;;3.15;2.92;;;;;;;;;;5070419;28;20556;-49
2021/01/12 01:02:05;;;;;;;3.88;3.55;;;;;;;;;;5071322;28;20238;-49
2021/01/12 01:04:31;;;;;;;3.30;3.00;;;;;;;;;;5077262;28;20178;-49
2021/01/12 01:06:57;;;;;;;3.30;2.90;;;;;;;;;;5077744;28;20181;-49
2021/01/12 01:09:23;;;;;;;3.33;3.03;;;;;;;;;;5076711;28;20190;-49
2021/01/12 01:11:50;;;;;;;3.67;3.38;;;;;;;;;;5076953;28;20194;-49
2021/01/12 01:14:17;;;;;;;3.20;2.90;;;;;;;;;;5076621;28;20193;-49
2021/01/12 01:16:43;;;;;;;3.60;3.30;;;;;;;;;;5076060;28;20190;-49
2021/01/12 01:19:10;;;;;;;3.28;2.97;;;;;;;;;;5077533;28;20282;-48
2021/01/12 01:21:36;;;;;;;3.50;3.20;;;;;;;;;;5076861;28;20199;-49
2021/01/12 01:24:02;;;;;;;3.10;2.80;;;;;;;;;;5076955;28;20224;-49
2021/01/12 01:26:28;;;;;;;3.33;3.03;;;;;;;;;;5077513;28;20440;-49
2021/01/12 01:28:54;;;;;;;3.53;3.22;;;;;;;;;;5077143;28;20182;-49
2021/01/12 01:31:21;;;;;;;3.38;3.00;;;;;;;;;;5076380;28;20644;-49
2021/01/12 01:33:47;;;;;;;3.53;3.22;;;;;;;;;;5077139;28;20262;-49
2021/01/12 01:36:13;;;;;;;3.45;3.15;;;;;;;;;;5076263;28;20186;-49
2021/01/12 01:38:40;;;;;;;4.30;3.05;;;;;;;;;;5077034;28;20190;-49
2021/01/12 01:41:07;;;;;;;3.25;2.95;;;;;;;;;;5073487;28;20190;-49
2021/01/12 01:43:33;;;;;;;3.25;3.05;;;;;;;;;;5067547;28;20175;-49
2021/01/12 01:45:59;;;;;;;3.33;3.03;;;;;;;;;;5076455;28;20159;-49
2021/01/12 01:48:25;;;;;;;3.30;3.00;;;;;;;;;;5075679;28;20466;-49
2021/01/12 01:50:51;;;;;;;2.92;2.72;;;;;;;;;;5075883;28;20178;-47
2021/01/12 01:53:18;;;;;;;3.28;3.00;;;;;;;;;;5076506;28;20181;-48
2021/01/12 01:55:44;;;;;;;3.40;3.10;;;;;;;;;;5076308;28;20216;-49
2021/01/12 01:58:10;;;;;;;3.00;2.70;;;;;;;;;;5076768;28;20201;-48
2021/01/12 02:00:36;;;;;;;3.08;2.70;;;;;;;;;;5076606;28;20258;-49
2021/01/12 02:03:17;;;;;;;3.20;3.00;;;;;;;;;;5074819;28;20195;-49
2021/01/12 02:05:47;;;;;;;3.70;3.40;;;;;;;;;;5066683;28;20281;-49
2021/01/12 02:08:19;;;;;;;3.30;3.00;;;;;;;;;;5066652;28;20189;-49
2021/01/12 02:10:47;;;;;;;3.40;3.10;;;;;;;;;;5076236;28;20174;-49
2021/01/12 02:13:14;;;;;;;3.15;2.85;;;;;;;;;;5076025;28;20542;-49
2021/01/12 02:15:40;;;;;;;3.08;2.85;;;;;;;;;;5073669;28;20209;-48
2021/01/12 02:18:08;;;;;;;3.42;3.13;;;;;;;;;;5075174;28;20171;-49
2021/01/12 02:20:34;;;;;;;3.42;3.13;;;;;;;;;;5062202;28;20206;-48
2021/01/12 02:23:05;;;;;;;3.42;3.13;;;;;;;;;;5075988;28;20592;-49
2021/01/12 02:25:34;;;;;;;2.75;2.55;;;;;;;;;;5075831;28;20159;-49
2021/01/12 02:28:01;;;;;;;3.13;2.83;;;;;;;;;;5075508;28;20177;-49
2021/01/12 02:30:27;;;;;;;3.17;2.88;;;;;;;;;;5074892;28;20501;-49
2021/01/12 02:32:54;;;;;;;2.75;2.55;;;;;;;;;;5075194;28;20200;-49
2021/01/12 02:35:22;;;;;;;2.92;2.72;;;;;;;;;;5075148;28;20261;-48
2021/01/12 02:37:48;;;;;;;3.00;2.70;;;;;;;;;;5075715;28;20170;-48
2021/01/12 02:40:14;;;;;;;2.67;2.47;;;;;;;;;;5075422;28;20191;-49
2021/01/12 02:42:44;;;;;;;2.95;2.75;;;;;;;;;;5075501;28;20194;-49
2021/01/12 02:45:11;;;;;;;3.10;2.83;;;;;;;;;;5073678;28;20257;-49
2021/01/12 02:47:38;;;;;;;3.08;2.83;;;;;;;;;;5075583;28;20228;-49
2021/01/12 02:50:07;;;;;;;2.85;2.65;;;;;;;;;;5073830;28;20280;-48
2021/01/12 02:52:33;;;;;;;4.22;3.08;;;;;;;;;;5075685;28;20225;-49
2021/01/12 02:55:00;;;;;;;2.97;2.78;;;;;;;;;;5074626;28;20182;-49
2021/01/12 02:57:26;;;;;;;2.88;2.67;;;;;;;;;;5075248;28;20186;-48
2021/01/12 02:59:52;;;;;;;2.97;2.78;;;;;;;;;;5073229;28;20183;-48
2021/01/12 03:02:18;;;;;;;2.92;2.72;;;;;;;;;;5073631;28;20209;-49
2021/01/12 03:04:44;;;;;;;2.60;2.40;;;;;;;;;;5072515;28;20170;-48
2021/01/12 03:07:10;;;;;;;3.20;2.90;;;;;;;;;;5055189;28;20492;-49
2021/01/12 03:09:36;;;;;;;3.95;3.33;;;;;;;;;;5056207;28;20305;-48
2021/01/12 03:12:02;;;;;;;3.15;2.85;;;;;;;;;;5063851;28;20198;-49
2021/01/12 03:14:28;;;;;;;3.10;2.80;;;;;;;;;;5062255;28;20197;-48
2021/01/12 03:16:54;;;;;;;2.80;2.60;;;;;;;;;;5065368;28;20479;-49
2021/01/12 03:19:20;;;;;;;3.25;3.03;;;;;;;;;;5074268;28;20179;-49
2021/01/12 03:21:46;;;;;;;3.00;2.80;;;;;;;;;;5073857;28;20465;-49
2021/01/12 03:24:12;;;;;;;2.75;2.55;;;;;;;;;;5074603;28;20190;-49
2021/01/12 03:26:38;;;;;;;3.05;2.85;;;;;;;;;;5072043;28;20177;-49
2021/01/12 03:29:04;;;;;;;2.92;2.72;;;;;;;;;;5073759;28;20506;-49
2021/01/12 03:31:30;;;;;;;3.28;2.97;;;;;;;;;;5069268;28;20247;-48
2021/01/12 03:33:56;;;;;;;2.95;2.70;;;;;;;;;;5074064;28;20595;-49
2021/01/12 03:36:22;;;;;;;3.28;2.97;;;;;;;;;;5074432;28;20196;-49
2021/01/12 03:38:49;;;;;;;2.42;2.30;;;;;;;;;;5074961;28;20190;-48
2021/01/12 03:41:15;;;;;;;2.67;2.47;;;;;;;;;;5064904;28;20682;-49
2021/01/12 03:43:42;;;;;;;2.58;2.38;;;;;;;;;;5074092;28;20202;-49
2021/01/12 03:46:07;;;;;;;2.40;2.20;;;;;;;;;;5073979;28;20171;-49
2021/01/12 03:48:33;;;;;;;2.80;2.60;;;;;;;;;;5081099;28;20260;-47
2021/01/12 03:50:59;;;;;;;2.72;2.53;;;;;;;;;;5080631;28;20189;-49
2021/01/12 03:53:25;;;;;;;2.95;2.75;;;;;;;;;;5072715;28;20182;-47
2021/01/12 03:55:51;;;;;;;3.28;2.97;;;;;;;;;;5068184;28;20176;-49
2021/01/12 03:58:18;;;;;;;2.63;2.42;;;;;;;;;;5073052;28;20227;-48
2021/01/12 04:00:44;;;;;;;3.47;3.08;;;;;;;;;;5072063;28;20455;-49
2021/01/12 04:03:10;;;;;;;2.90;2.70;;;;;;;;;;5070782;28;20265;-49
2021/01/12 04:05:38;;;;;;;2.53;2.33;;;;;;;;;;5074288;28;20167;-49
2021/01/12 04:08:07;;;;;;;3.03;2.75;;;;;;;;;;5066802;28;20178;-47
2021/01/12 04:10:33;;;;;;;3.00;2.70;;;;;;;;;;5064249;28;20190;-48
2021/01/12 04:13:00;;;;;;;2.88;2.63;;;;;;;;;;5073968;28;20239;-49
2021/01/12 04:15:26;;;;;;;2.53;2.33;;;;;;;;;;5074196;28;20171;-49
2021/01/12 04:17:52;;;;;;;3.20;2.90;;;;;;;;;;5073483;28;20213;-49
2021/01/12 04:20:19;;;;;;;2.50;2.30;;;;;;;;;;5072804;28;20179;-49
2021/01/12 04:22:45;;;;;;;2.53;2.33;;;;;;;;;;5066776;28;20202;-49
2021/01/12 04:25:11;;;;;;;3.08;2.88;;;;;;;;;;5054171;28;20175;-49
2021/01/12 04:27:37;;;;;;;2.55;2.35;;;;;;;;;;5070301;28;20182;-49
2021/01/12 04:30:04;;;;;;;2.80;2.60;;;;;;;;;;5078159;28;20178;-49
2021/01/12 04:32:30;;;;;;;2.83;2.53;;;;;;;;;;5078210;28;20206;-48
2021/01/12 04:34:56;;;;;;;2.63;2.42;;;;;;;;;;5068565;28;20192;-48
2021/01/12 04:37:22;;;;;;;2.83;2.63;;;;;;;;;;5077955;28;20209;-49
2021/01/12 04:39:48;;;;;;;2.30;2.20;;;;;;;;;;5078206;28;20465;-48
2021/01/12 04:42:14;;;;;;;2.42;2.20;;;;;;;;;;5070828;28;20219;-49
2021/01/12 04:44:40;;;;;;;2.80;2.60;;;;;;;;;;5074695;28;20170;-49
2021/01/12 04:47:07;;;;;;;2.40;2.20;;;;;;;;;;5076740;28;20470;-48
2021/01/12 04:49:33;;;;;;;2.55;2.35;;;;;;;;;;5069204;28;20179;-49
2021/01/12 04:52:00;;;;;;;2.38;2.17;;;;;;;;;;5073793;28;20260;-49
2021/01/12 04:54:26;;;;;;;2.47;2.28;;;;;;;;;;5077119;28;20189;-49
2021/01/12 04:56:55;;;;;;;2.40;2.22;;;;;;;;;;5077491;28;20178;-48
2021/01/12 04:59:24;;;;;;;2.75;2.47;;;;;;;;;;5078304;28;20179;-49
2021/01/12 05:01:51;;;;;;;2.50;2.20;;;;;;;;;;5068797;28;20203;-49
2021/01/12 05:04:17;;;;;;;2.55;2.35;;;;;;;;;;5069829;28;20266;-49
2021/01/12 05:06:46;;;;;;;2.30;2.10;;;;;;;;;;5057666;28;20202;-49
2021/01/12 05:09:19;;;;;;;2.00;1.90;;;;;;;;;;5077979;28;20170;-48
2021/01/12 05:11:45;;;;;;;2.42;2.22;;;;;;;;;;5077534;28;20266;-49
2021/01/12 05:14:12;;;;;;;2.10;2.00;;;;;;;;;;5075164;28;20193;-48
2021/01/12 05:16:49;;;;;;;2.40;2.00;;;;;;;;;;5075622;28;20224;-48
2021/01/12 05:19:26;;;;;;;2.20;2.00;;;;;;;;;;5076616;28;20185;-49
2021/01/12 05:21:55;;;;;;;2.30;2.10;;;;;;;;;;5059923;28;20290;-49
2021/01/12 05:24:22;;;;;;;2.45;2.25;;;;;;;;;;5076492;28;20261;-49
2021/01/12 05:26:48;;;;;;;2.40;2.20;;;;;;;;;;5077604;28;20169;-48
2021/01/12 05:29:15;;;;;;;2.28;2.08;;;;;;;;;;5076090;28;20171;-49
2021/01/12 05:31:43;;;;;;;2.30;2.08;;;;;;;;;;5057564;28;20308;-48
2021/01/12 05:34:10;;;;;;;4.78;1.90;;;;;;;;;;5075843;28;20289;-49
2021/01/12 05:36:48;;;;;;;4.30;2.03;;;;;;;;;;5076330;28;20179;-49
2021/01/12 05:39:21;;;;;;;6.15;2.20;;;;;;;;;;5077198;28;20495;-49
2021/01/12 05:41:48;;;;;;;3.97;2.30;;;;;;;;;;5058417;28;20521;-49
2021/01/12 05:44:15;;;;;;;2.83;1.80;;;;;;;;;;5075739;28;20175;-49
2021/01/12 05:46:45;;;;;;;6.72;2.28;;;;;;;;;;5076992;28;20211;-49
2021/01/12 05:49:11;;;;;;;2.20;2.00;;;;;;;;;;5076497;28;20175;-49
2021/01/12 05:51:43;;;;;;;2.00;1.80;;;;;;;;;;5076089;28;20565;-48
2021/01/12 05:54:10;;;;;;;3.95;2.10;;;;;;;;;;5063383;28;20290;-48
2021/01/12 05:56:37;;;;;;;2.88;2.15;;;;;;;;;;5064969;28;20212;-49
2021/01/12 05:59:07;;;;;;;3.42;2.15;;;;;;;;;;5075488;28;20269;-49
2021/01/12 06:01:42;;;;;;;3.50;2.08;;;;;;;;;;5076435;28;20247;-49
2021/01/12 06:04:09;;;;;;;3.17;2.00;;;;;;;;;;5063199;28;20174;-48
2021/01/12 06:06:37;;;;;;;4.18;2.40;;;;;;;;;;5056677;28;20193;-49
2021/01/12 06:09:03;;;;;;;2.35;2.00;;;;;;;;;;5073539;28;20175;-49
2021/01/12 06:11:33;;;;;;;2.80;2.00;;;;;;;;;;5075338;28;20421;-49
2021/01/12 06:14:07;;;;;;;3.85;2.15;;;;;;;;;;5075500;28;20182;-49
2021/01/12 06:16:34;;;;;;;2.55;2.28;;;;;;;;;;5076379;28;20174;-49
2021/01/12 06:19:05;;;;;;;2.55;2.00;;;;;;;;;;5079776;28;20178;-49
2021/01/12 06:21:34;;;;;;;4.25;1.90;;;;;;;;;;5071826;28;20226;-49
2021/01/12 06:24:01;;;;;;;2.97;2.00;;;;;;;;;;5073266;28;20178;-49
2021/01/12 06:26:27;;;;;;;2.08;1.77;;;;;;;;;;5067643;28;20183;-49
2021/01/12 06:28:53;;;;;;;2.25;1.80;;;;;;;;;;5073342;28;20186;-49
2021/01/12 06:31:19;;;;;;;3.47;1.95;;;;;;;;;;5075806;28;20218;-49
2021/01/12 06:33:55;;;;;;;3.72;2.08;;;;;;;;;;5074935;28;20187;-49
2021/01/12 06:36:23;;;;;;;2.97;2.10;;;;;;;;;;5061142;28;20183;-49
2021/01/12 06:38:49;;;;;;;3.08;1.80;;;;;;;;;;5072455;28;20190;-49
2021/01/12 06:41:19;;;;;;;2.72;2.10;;;;;;;;;;5067874;28;20218;-49
2021/01/12 06:43:48;;;;;;;3.38;1.83;;;;;;;;;;5063264;28;20638;-49
2021/01/12 06:46:15;;;;;;;2.13;1.90;;;;;;;;;;5075410;28;20205;-48
2021/01/12 06:48:45;;;;;;;3.47;2.00;;;;;;;;;;5081736;28;20170;-49
2021/01/12 06:51:11;;;;;;;3.03;1.70;;;;;;;;;;5073814;28;20198;-49
2021/01/12 06:53:44;;;;;;;2.15;1.80;;;;;;;;;;5067909;28;20190;-49
2021/01/12 06:56:10;;;;;;;1.90;1.70;;;;;;;;;;5062970;28;20254;-49
2021/01/12 06:58:36;;;;;;;2.55;1.98;;;;;;;;;;5074762;28;20265;-48
2021/01/12 07:01:02;;;;;;;2.90;1.83;;;;;;;;;;5074838;28;20274;-49
2021/01/12 07:03:30;;;;;;;1.70;1.60;;;;;;;;;;5062722;28;20175;-49
2021/01/12 07:05:59;;;;;;;2.03;1.85;;;;;;;;;;5073820;28;20589;-48
2021/01/12 07:08:26;;;;;;;2.20;1.40;;;;;;;;;;5075311;28;20185;-49
2021/01/12 07:10:52;;;;;;;2.10;1.67;;;;;;;;;;5075461;28;20167;-49
2021/01/12 07:13:18;;;;;;;2.60;1.75;;;;;;;;;;5074417;28;20243;-48
2021/01/12 07:15:49;;;;;;;1.65;1.55;;;;;;;;;;5073175;28;20269;-49
2021/01/12 07:18:20;;;;;;;1.60;1.50;;;;;;;;;;5072640;28;20178;-48
2021/01/12 07:20:46;;;;;;;1.48;1.38;;;;;;;;;;5074301;28;20190;-49
2021/01/12 07:23:13;;;;;;;1.92;1.60;;;;;;;;;;5072673;28;20301;-49
2021/01/12 07:25:44;;;;;;;1.77;1.55;;;;;;;;;;5073266;28;20166;-49
2021/01/12 07:28:16;;;;;;;1.63;1.52;;;;;;;;;;5074857;28;20545;-49
2021/01/12 07:30:43;;;;;;;1.65;1.55;;;;;;;;;;5061928;28;20179;-49
2021/01/12 07:33:18;;;;;;;1.67;1.58;;;;;;;;;;5070670;28;20228;-49
2021/01/12 07:35:51;;;;;;;2.55;1.70;;;;;;;;;;5074558;28;20166;-49
2021/01/12 07:38:27;;;;;;;1.70;1.60;;;;;;;;;;5074827;28;20198;-48
2021/01/12 07:40:54;;;;;;;3.08;1.45;;;;;;;;;;5074656;28;20170;-48
2021/01/12 07:43:22;;;;;;;1.88;1.63;;;;;;;;;;5062951;28;20203;-49
2021/01/12 07:45:48;;;;;;;1.63;1.42;;;;;;;;;;5059233;28;20590;-49
2021/01/12 07:48:14;;;;;;;2.08;1.52;;;;;;;;;;5074086;28;20179;-49
2021/01/12 07:50:45;;;;;;;2.33;1.42;;;;;;;;;;5074399;28;20555;-49
2021/01/12 07:53:11;;;;;;;1.67;1.40;;;;;;;;;;5074353;28;20179;-49
2021/01/12 07:55:40;;;;;;;2.30;1.27;;;;;;;;;;5073268;28;20182;-49
2021/01/12 07:58:07;;;;;;;1.50;1.40;;;;;;;;;;5058811;28;20232;-49
2021/01/12 08:00:33;;;;;;;1.42;1.33;;;;;;;;;;5055645;28;20744;-49
2021/01/12 08:03:00;;;;;;;1.70;1.48;;;;;;;;;;5072737;28;20209;-49
2021/01/12 08:05:26;;;;;;;1.30;1.20;;;;;;;;;;5073261;28;20206;-48
2021/01/12 08:08:05;;;;;;;1.40;1.30;;;;;;;;;;5074398;28;20182;-49
2021/01/12 08:10:32;;;;;;;1.55;1.45;;;;;;;;;;5071126;28;20188;-49
2021/01/12 08:13:08;;;;;;;1.50;1.40;;;;;;;;;;5073853;28;20197;-49
2021/01/12 08:15:36;;;;;;;1.25;1.15;;;;;;;;;;5073205;28;20177;-49
2021/01/12 08:18:04;;;;;;;1.40;1.20;;;;;;;;;;5072784;28;20438;-48
2021/01/12 08:20:30;;;;;;;1.45;1.35;;;;;;;;;;5072666;28;20178;-49
2021/01/12 08:22:57;;;;;;;1.25;1.15;;;;;;;;;;5074579;28;20202;-49
2021/01/12 08:25:23;;;;;;;1.35;1.25;;;;;;;;;;5073944;28;20171;-49
2021/01/12 08:27:53;;;;;;;1.30;1.20;;;;;;;;;;5073941;28;20253;-49
2021/01/12 08:30:23;;;;;;;1.42;1.00;;;;;;;;;;5074611;28;20568;-48
2021/01/12 08:33:08;;;;;;;1.02;0.95;;;;;;;;;;5059408;28;20178;-49
2021/01/12 08:35:38;;;;;;;1.20;1.10;;;;;;;;;;5054082;28;20171;-48
2021/01/12 08:38:07;;;;;;;1.15;1.13;;;;;;;;;;5064524;28;20204;-49
2021/01/12 08:40:33;;;;;;;2.47;1.20;;;;;;;;;;5074776;28;20183;-49
2021/01/12 08:43:00;;;;;;;1.30;1.20;;;;;;;;;;5072963;28;20260;-49
2021/01/12 08:45:26;;;;;;;1.20;1.10;;;;;;;;;;5073730;28;20166;-48
2021/01/12 08:47:52;;;;;;;1.10;1.00;;;;;;;;;;5072049;28;20171;-49
2021/01/12 08:50:19;;;;;;;1.05;1.05;;;;;;;;;;5073116;28;20557;-49
2021/01/12 08:52:49;;;;;;;1.05;0.95;;;;;;;;;;5073935;28;20284;-49
2021/01/12 08:55:23;;;;;;;2.30;1.15;;;;;;;;;;5074068;28;20172;-49
2021/01/12 08:57:57;;;;;;;1.67;1.00;;;;;;;;;;5073839;28;20178;-49
2021/01/12 09:00:36;;;;;;;0.98;0.88;;;;;;;;;;5074396;28;20838;-49
2021/01/12 09:03:03;;;;;;;1.20;1.10;;;;;;;;;;5073225;28;20264;-49
2021/01/12 09:05:33;;;;;;;0.98;0.90;;;;;;;;;;5060748;28;20257;-49
2021/01/12 09:08:04;;;;;;;1.02;0.93;;;;;;;;;;5066760;28;20516;-48
2021/01/12 09:10:30;;;;;;;1.00;1.00;;;;;;;;;;5073234;28;20201;-49
2021/01/12 09:12:56;;;;;;;1.05;1.00;;;;;;;;;;5071663;28;20562;-49
2021/01/12 09:15:42;;;;;;;2.05;1.10;;;;;;;;;;5077090;28;20232;-49
2021/01/12 09:18:09;;;;;;;2.55;1.50;;;;;;;;;;5077117;28;20621;-49
2021/01/12 09:20:38;;;;;;;1.15;1.05;;;;;;;;;;5063820;28;20424;-49
2021/01/12 09:23:06;;;;;;;3.30;1.60;;;;;;;;;;5075997;28;20198;-49
2021/01/12 09:25:33;;;;;;;2.15;1.40;;;;;;;;;;5077028;28;20257;-49
2021/01/12 09:28:09;;;;;;;1.98;1.38;;;;;;;;;;5077156;28;20257;-49
2021/01/12 09:30:35;;;;;;;2.88;1.63;;;;;;;;;;5077208;28;20167;-49
2021/01/12 09:33:01;;;;;;;2.30;1.60;;;;;;;;;;5068654;28;20235;-49
2021/01/12 09:35:27;;;;;;;5.68;2.15;;;;;;;;;;5076317;28;20229;-49
2021/01/12 09:37:57;;;;;;;4.60;2.13;;;;;;;;;;5077121;28;20181;-49
2021/01/12 09:40:23;;;;;;;4.93;2.30;;;;;;;;;;5073328;28;20315;-48
2021/01/12 09:42:49;;;;;;;6.20;2.40;;;;;;;;;;5064791;28;20272;-49
2021/01/12 09:45:15;;;;;;;2.38;1.85;;;;;;;;;;5070824;28;20277;-49
2021/01/12 09:47:41;;;;;;;3.83;2.20;;;;;;;;;;5069882;28;20262;-49
2021/01/12 09:50:08;;;;;;;4.45;2.20;;;;;;;;;;5070564;28;20225;-48
2021/01/12 09:52:34;;;;;;;4.57;1.90;;;;;;;;;;5055381;28;20171;-49
2021/01/12 09:55:00;;;;;;;4.30;1.90;;;;;;;;;;5060110;28;20250;-49
2021/01/12 09:57:26;;;;;;;3.58;1.77;;;;;;;;;;5075418;28;20269;-48
2021/01/12 09:59:52;;;;;;;3.25;1.85;;;;;;;;;;5076167;28;20211;-48
2021/01/12 10:02:17;;;;;;;3.20;1.80;;;;;;;;;;5069830;28;21593;-49
2021/01/12 10:04:45;;;;;;;8.05;2.30;;;;;;;;;;5075154;28;20177;-48
2021/01/12 10:07:11;;;;;;;3.95;1.55;;;;;;;;;;5067399;28;20556;-49
2021/01/12 10:09:37;;;;;;;3.35;1.77;;;;;;;;;;5076664;28;20178;-48
2021/01/12 10:12:04;;;;;;;2.78;1.70;;;;;;;;;;5075995;28;20174;-49
2021/01/12 10:14:30;;;;;;;4.97;1.65;;;;;;;;;;5075724;28;20179;-49
2021/01/12 10:16:56;;;;;;;5.43;1.75;;;;;;;;;;5067980;28;20269;-50
2021/01/12 10:19:23;;;;;;;3.08;1.85;;;;;;;;;;5072297;28;20433;-50
2021/01/12 10:21:49;;;;;;;4.20;1.80;;;;;;;;;;5063704;28;20194;-50
2021/01/12 10:24:16;;;;;;;4.95;2.00;;;;;;;;;;5074859;28;20503;-48
2021/01/12 10:26:43;;;;;;;7.47;2.65;;;;;;;;;;5075399;28;20184;-50
2021/01/12 10:29:10;;;;;;;4.50;2.03;;;;;;;;;;5075524;28;20643;-49
2021/01/12 10:31:37;;;;;;;5.45;2.10;;;;;;;;;;5075930;28;20273;-49
2021/01/12 10:34:03;;;;;;;5.93;2.10;;;;;;;;;;5072408;28;20712;-49
2021/01/12 10:36:29;;;;;;;3.22;1.95;;;;;;;;;;5075288;28;20623;-49
2021/01/12 10:38:55;;;;;;;4.63;1.83;;;;;;;;;;5075300;28;20194;-49
2021/01/12 10:41:21;;;;;;;2.75;2.00;;;;;;;;;;5076065;28;20194;-50
2021/01/12 10:43:50;;;;;;;6.10;1.88;;;;;;;;;;5076697;28;20183;-50
2021/01/12 10:46:16;;;;;;;6.55;1.90;;;;;;;;;;5075023;28;20576;-49
2021/01/12 10:48:42;;;;;;;10.77;2.00;;;;;;;;;;5073505;28;20224;-49
2021/01/12 10:51:09;;;;;;;7.25;2.30;;;;;;;;;;5062710;28;20207;-49
2021/01/12 10:53:35;;;;;;;5.70;1.90;;;;;;;;;;5061447;28;20175;-49
2021/01/12 10:56:01;;;;;;;4.35;1.98;;;;;;;;;;5069025;28;20513;-49
2021/01/12 10:58:28;;;;;;;3.63;2.20;;;;;;;;;;5075481;28;20496;-49
2021/01/12 11:00:54;;;;;;;3.90;2.28;;;;;;;;;;5074766;28;20244;-50
2021/01/12 11:03:20;;;;;;;8.35;2.10;;;;;;;;;;5074911;28;20206;-50
2021/01/12 11:05:47;;;;;;;3.53;1.70;;;;;;;;;;5074231;28;20194;-50
2021/01/12 11:08:13;;;;;;;3.45;1.65;;;;;;;;;;5075542;28;20269;-48
2021/01/12 11:10:39;;;;;;;3.40;1.55;;;;;;;;;;5075619;28;20163;-48
2021/01/12 11:13:05;;;;;;;3.08;1.70;;;;;;;;;;5074932;28;20174;-49
2021/01/12 11:15:31;;;;;;;5.57;1.45;;;;;;;;;;5072513;28;20201;-50
2021/01/12 11:17:57;;;;;;;2.08;1.55;;;;;;;;;;5074549;28;20218;-50
2021/01/12 11:20:23;;;;;;;4.90;1.70;;;;;;;;;;5073158;28;20467;-50
2021/01/12 11:22:49;;;;;;;2.15;1.52;;;;;;;;;;5065920;28;20221;-49
2021/01/12 11:25:15;;;;;;;6.63;1.70;;;;;;;;;;5074645;28;20443;-49
2021/01/12 11:27:42;;;;;;;4.03;1.40;;;;;;;;;;5074723;28;20437;-48
2021/01/12 11:30:08;;;;;;;2.35;1.20;;;;;;;;;;5061750;28;20490;-50
2021/01/12 11:32:36;;;;;;;3.55;1.45;;;;;;;;;;5068176;28;20221;-49
2021/01/12 11:35:02;;;;;;;2.05;1.30;;;;;;;;;;5073474;28;20192;-50
2021/01/12 11:37:29;;;;;;;3.05;1.48;;;;;;;;;;5074984;28;20565;-50
2021/01/12 11:39:55;;;;;;;2.08;1.30;;;;;;;;;;5074559;28;20730;-49
2021/01/12 11:42:21;;;;;;;3.63;1.20;;;;;;;;;;5073390;28;20201;-48
2021/01/12 11:44:48;;;;;;;1.60;1.20;;;;;;;;;;5070368;28;20178;-49
2021/01/12 11:47:14;;;;;;;2.83;1.30;;;;;;;;;;5059999;28;20178;-49
2021/01/12 11:49:40;;;;;;;3.00;1.20;;;;;;;;;;5074378;28;20456;-49
2021/01/12 11:52:07;;;;;;;3.22;1.55;;;;;;;;;;5074267;28;20222;-49
2021/01/12 11:54:33;;;;;;;1.85;1.10;;;;;;;;;;5075113;28;20182;-49
2021/01/12 11:57:00;;;;;;;1.52;1.20;;;;;;;;;;5068331;28;20562;-49
2021/01/12 11:59:30;;;;;;;3.00;1.50;;;;;;;;;;5054961;28;20270;-50
2021/01/12 12:01:56;;;;;;;2.50;1.35;;;;;;;;;;5060865;28;20290;-49
2021/01/12 12:04:23;;;;;;;1.80;1.30;;;;;;;;;;5074310;28;20205;-49
2021/01/12 12:06:51;;;;;;;2.53;1.20;;;;;;;;;;5075250;28;20256;-49
2021/01/12 12:09:17;;;;;;;3.72;1.25;;;;;;;;;;5071387;28;20175;-50
2021/01/12 12:11:44;;;;;;;1.27;1.17;;;;;;;;;;5054487;28;20163;-48
2021/01/12 12:14:11;;;;;;;1.60;1.15;;;;;;;;;;5073484;28;20607;-49
2021/01/12 12:16:37;;;;;;;1.42;1.20;;;;;;;;;;5072741;28;20167;-49
2021/01/12 12:19:06;;;;;;;3.53;1.52;;;;;;;;;;5074101;28;20477;-50
2021/01/12 12:21:32;;;;;;;1.85;1.20;;;;;;;;;;5073804;28;20476;-49
2021/01/12 12:23:58;;;;;;;3.58;1.63;;;;;;;;;;5073375;28;20202;-50
2021/01/12 12:26:24;;;;;;;2.50;1.25;;;;;;;;;;5073444;28;20206;-49
2021/01/12 12:28:50;;;;;;;2.67;1.40;;;;;;;;;;5074002;28;20202;-49
2021/01/12 12:31:16;;;;;;;3.40;1.10;;;;;;;;;;5074509;28;20853;-49
2021/01/12 12:33:42;;;;;;;2.47;1.42;;;;;;;;;;5074429;28;20174;-49
2021/01/12 12:36:09;;;;;;;2.97;1.27;;;;;;;;;;5071061;28;20175;-50
2021/01/12 12:38:38;;;;;;;2.58;1.40;;;;;;;;;;5070305;28;20201;-49
2021/01/12 12:41:08;;;;;;;5.18;1.38;;;;;;;;;;5059223;28;20171;-49
2021/01/12 12:43:34;;;;;;;5.25;1.27;;;;;;;;;;5074405;28;20199;-49
2021/01/12 12:46:00;;;;;;;2.85;1.20;;;;;;;;;;5073349;28;20202;-49
2021/01/12 12:48:26;;;;;;;2.28;1.20;;;;;;;;;;5076210;28;20190;-50
2021/01/12 12:50:55;;;;;;;2.55;1.20;;;;;;;;;;5064696;28;20191;-49
2021/01/12 12:53:21;;;;;;;4.90;1.27;;;;;;;;;;5073919;28;20193;-49
2021/01/12 12:55:47;;;;;;;2.08;1.20;;;;;;;;;;5076610;28;20162;-49
2021/01/12 12:58:14;;;;;;;2.92;1.25;;;;;;;;;;5073836;28;20569;-49
2021/01/12 13:00:40;;;;;;;5.85;1.17;;;;;;;;;;5078269;28;20175;-49
2021/01/12 13:03:06;;;;;;;3.15;1.30;;;;;;;;;;5074483;28;20878;-49
2021/01/12 13:05:33;;;;;;;2.40;1.27;;;;;;;;;;5064640;28;20227;-49
2021/01/12 13:07:59;;;;;;;2.67;1.20;;;;;;;;;;5066236;28;20221;-49
2021/01/12 13:10:25;;;;;;;1.90;1.20;;;;;;;;;;5075535;28;20178;-49
2021/01/12 13:12:51;;;;;;;1.88;1.10;;;;;;;;;;5078187;28;20580;-49
2021/01/12 13:15:17;;;;;;;3.47;1.02;;;;;;;;;;5077527;28;20174;-49
2021/01/12 13:17:45;;;;;;;2.03;1.00;;;;;;;;;;5077034;28;20594;-49
2021/01/12 13:20:11;;;;;;;2.22;0.70;;;;;;;;;;5076978;28;20183;-49
2021/01/12 13:22:39;;;;;;;2.35;1.00;;;;;;;;;;5077386;28;20223;-49
2021/01/12 13:25:05;;;;;;;3.47;1.05;;;;;;;;;;5077171;28;20463;-49
2021/01/12 13:27:31;;;;;;;3.20;1.20;;;;;;;;;;5077469;28;20573;-49
2021/01/12 13:29:57;;;;;;;7.38;1.10;;;;;;;;;;5071792;28;21668;-49
2021/01/12 13:32:23;;;;;;;1.92;1.10;;;;;;;;;;5077352;28;20265;-49
2021/01/12 13:34:49;;;;;;;2.58;1.20;;;;;;;;;;5059218;28;20467;-50
2021/01/12 13:37:15;;;;;;;3.70;1.05;;;;;;;;;;5067408;28;20508;-49
2021/01/12 13:39:41;;;;;;;4.18;1.30;;;;;;;;;;5077481;28;20645;-49
2021/01/12 13:42:07;;;;;;;1.95;1.10;;;;;;;;;;5077163;28;20281;-49
2021/01/12 13:44:34;;;;;;;0.93;0.82;;;;;;;;;;5076594;28;20489;-49
2021/01/12 13:47:00;;;;;;;2.10;1.15;;;;;;;;;;5069974;28;20410;-49
2021/01/12 13:49:26;;;;;;;4.63;1.02;;;;;;;;;;5082720;28;20278;-49
2021/01/12 13:51:52;;;;;;;4.18;1.13;;;;;;;;;;5076431;28;20281;-49
2021/01/12 13:54:21;;;;;;;1.45;1.00;;;;;;;;;;5076562;28;20243;-49
2021/01/12 13:56:52;;;;;;;1.60;1.02;;;;;;;;;;5070468;28;20430;-50
2021/01/12 13:59:19;;;;;;;1.05;0.95;;;;;;;;;;5075556;28;20171;-49
2021/01/12 14:01:46;;;;;;;1.73;1.10;;;;;;;;;;5074963;28;20245;-52
2021/01/12 14:04:12;;;;;;;1.30;1.20;;;;;;;;;;5074153;28;20193;-49
2021/01/12 14:06:38;;;;;;;1.73;1.17;;;;;;;;;;5064641;28;20721;-49
2021/01/12 14:09:04;;;;;;;1.10;1.00;;;;;;;;;;5061735;28;20167;-50
2021/01/12 14:11:31;;;;;;;1.25;0.82;;;;;;;;;;5063929;28;20187;-49
2021/01/12 14:13:57;;;;;;;1.35;1.00;;;;;;;;;;5071254;28;20224;-49
2021/01/12 14:16:23;;;;;;;2.20;0.98;;;;;;;;;;5071703;28;20249;-48
2021/01/12 14:18:49;;;;;;;4.63;1.20;;;;;;;;;;5075883;28;20225;-49
2021/01/12 14:21:19;;;;;;;4.28;1.45;;;;;;;;;;5075068;28;20182;-50
2021/01/12 14:23:48;;;;;;;2.17;1.10;;;;;;;;;;5080941;28;20178;-50
2021/01/12 14:26:14;;;;;;;1.45;1.00;;;;;;;;;;5071449;28;20206;-49
2021/01/12 14:28:40;;;;;;;1.20;1.00;;;;;;;;;;5071383;28;20205;-49
2021/01/12 14:31:06;;;;;;;3.97;1.40;;;;;;;;;;5070041;28;20182;-49
2021/01/12 14:33:32;;;;;;;2.60;1.20;;;;;;;;;;5072683;28;20573;-49
2021/01/12 14:35:59;;;;;;;4.18;1.40;;;;;;;;;;5071377;28;20178;-50
2021/01/12 14:38:32;;;;;;;2.50;0.93;;;;;;;;;;5074320;28;20241;-50
2021/01/12 14:40:58;;;;;;;7.63;1.42;;;;;;;;;;5064881;28;20189;-49
2021/01/12 14:43:24;;;;;;;4.13;1.60;;;;;;;;;;5065046;28;20297;-49